createdAt,value
2018-06-04T05:19:07.590Z,23.38
2018-06-04T05:24:02.171Z,22.97
2018-06-04T05:28:56.740Z,23.22
2018-06-04T05:33:51.471Z,23.51
2018-06-04T05:38:46.139Z,23.49
2018-06-04T05:43:40.787Z,23.26
2018-06-04T05:48:35.333Z,23.04
2018-06-04T05:53:36.633Z,22.90
2018-06-04T05:58:31.146Z,22.92
2018-06-04T06:03:25.698Z,22.64
2018-06-04T06:08:20.268Z,22.39
2018-06-04T06:13:14.810Z,22.45
2018-06-04T06:18:09.410Z,22.53
2018-06-04T06:23:04.011Z,22.57
2018-06-04T06:27:58.606Z,22.57
2018-06-04T06:32:53.160Z,22.72
2018-06-04T06:37:47.734Z,22.81
2018-06-04T06:42:42.292Z,23.02
2018-06-04T06:47:36.827Z,23.29
2018-06-04T06:52:31.417Z,23.34
2018-06-04T06:57:25.917Z,23.89
2018-06-04T07:02:20.752Z,23.94
2018-06-04T07:07:15.306Z,24.14
2018-06-04T07:12:09.853Z,24.53
2018-06-04T07:17:04.425Z,24.43
2018-06-04T07:21:58.977Z,24.83
2018-06-04T07:26:53.233Z,25.15
2018-06-04T07:31:47.780Z,25.14
2018-06-04T07:36:42.327Z,25.40
2018-06-04T07:41:36.926Z,25.02
2018-06-04T07:46:31.587Z,25.21
2018-06-04T07:51:26.166Z,25.59
2018-06-04T07:56:20.701Z,25.92
2018-06-04T08:01:15.280Z,25.84
2018-06-04T08:06:09.883Z,26.61
2018-06-04T08:11:04.471Z,26.75
2018-06-04T08:15:59.055Z,27.00
2018-06-04T08:20:53.607Z,26.84
2018-06-04T08:25:48.150Z,27.07
2018-06-04T08:30:42.724Z,27.66
2018-06-04T08:35:37.280Z,27.51
2018-06-04T08:40:31.827Z,27.22
2018-06-04T08:45:26.361Z,27.50
2018-06-04T08:50:20.926Z,27.83
2018-06-04T09:00:12.339Z,28.25
2018-06-04T09:05:06.923Z,28.25
2018-06-04T09:10:01.474Z,28.55
2018-06-04T09:14:56.060Z,28.33
2018-06-04T09:19:50.642Z,28.56
2018-06-04T09:24:45.219Z,28.07
2018-06-04T09:29:39.820Z,28.27
2018-06-04T09:34:35.418Z,27.88
2018-06-04T09:39:30.011Z,28.07
2018-06-04T09:44:24.645Z,28.38
2018-06-04T09:49:19.183Z,28.37
2018-06-04T09:54:13.839Z,28.43
2018-06-04T09:59:08.394Z,28.38
2018-06-04T10:04:03.094Z,28.86
2018-06-04T10:08:57.632Z,28.68
2018-06-04T10:13:52.203Z,28.42
2018-06-04T10:18:47.354Z,29.05
2018-06-04T10:23:41.964Z,29.22
2018-06-04T10:28:36.491Z,29.34
2018-06-04T10:33:31.054Z,29.06
2018-06-04T10:38:25.613Z,29.33
2018-06-04T10:43:20.154Z,29.26
2018-06-04T10:48:14.705Z,29.44
2018-06-04T10:53:09.283Z,29.46
2018-06-04T10:58:03.859Z,29.19
2018-06-04T11:02:58.404Z,29.59
2018-06-04T11:07:52.978Z,29.40
2018-06-04T11:12:47.587Z,29.71
2018-06-04T11:17:42.383Z,30.19
2018-06-04T11:22:36.943Z,30.17
2018-06-04T11:27:31.495Z,30.63
2018-06-04T11:32:26.088Z,30.41
2018-06-04T11:37:20.663Z,30.48
2018-06-04T11:42:15.240Z,30.51
2018-06-04T11:47:09.796Z,30.28
2018-06-04T11:52:04.423Z,30.20
2018-06-04T11:56:59.003Z,30.16
2018-06-04T12:01:53.585Z,30.18
2018-06-04T12:06:48.145Z,30.51
2018-06-04T12:11:42.707Z,30.68
2018-06-04T12:16:37.277Z,30.01
2018-06-04T12:21:31.862Z,30.01
2018-06-04T12:26:26.425Z,30.45
2018-06-04T12:31:20.995Z,30.11
2018-06-04T12:36:15.567Z,29.86
2018-06-04T12:41:10.226Z,29.99
2018-06-04T12:46:04.916Z,29.98
2018-06-04T12:50:59.510Z,29.92
2018-06-04T12:55:54.069Z,29.87
2018-06-04T13:00:48.594Z,29.71
2018-06-04T13:05:43.204Z,29.65
2018-06-04T13:10:37.780Z,29.86
2018-06-04T13:15:32.418Z,29.61
2018-06-04T13:20:27.033Z,29.77
2018-06-04T13:25:21.637Z,29.74
2018-06-04T13:30:16.215Z,29.75
2018-06-04T13:35:10.786Z,29.34
2018-06-04T13:40:05.038Z,29.49
2018-06-04T13:44:59.632Z,29.69
2018-06-04T13:49:54.215Z,29.78
2018-06-04T13:54:48.462Z,29.70
2018-06-04T13:59:43.048Z,29.73
2018-06-04T14:04:37.579Z,29.45
2018-06-04T14:09:32.163Z,29.55
2018-06-04T14:14:26.785Z,29.42
2018-06-04T14:19:21.346Z,29.58
2018-06-04T14:24:15.635Z,29.56
2018-06-04T14:29:10.182Z,29.37
2018-06-04T14:34:04.785Z,29.47
2018-06-04T14:38:59.437Z,29.47
2018-06-04T14:43:53.999Z,29.71
2018-06-04T14:48:48.571Z,29.67
2018-06-04T14:53:42.861Z,29.83
2018-06-04T14:58:37.379Z,29.71
2018-06-04T15:03:31.942Z,29.42
2018-06-04T15:08:26.498Z,29.41
2018-06-04T15:13:21.074Z,29.35
2018-06-04T15:18:15.680Z,29.35
2018-06-04T15:23:10.218Z,29.44
2018-06-04T15:28:04.487Z,29.53
2018-06-04T15:32:59.086Z,29.55
2018-06-04T15:37:53.754Z,29.38
2018-06-04T15:42:48.311Z,29.21
2018-06-04T15:47:42.874Z,29.44
2018-06-04T15:52:37.455Z,29.44
2018-06-04T15:57:32.021Z,29.41
2018-06-04T16:02:26.596Z,29.33
2018-06-04T16:07:21.163Z,29.25
2018-06-04T16:12:15.757Z,29.20
2018-06-04T16:17:10.314Z,29.09
2018-06-04T16:22:04.913Z,28.84
2018-06-04T16:26:59.398Z,28.64
2018-06-04T16:31:53.951Z,28.36
2018-06-04T16:36:48.555Z,28.20
2018-06-04T16:41:43.137Z,28.18
2018-06-04T16:46:37.681Z,27.96
2018-06-04T16:51:32.259Z,27.44
2018-06-04T16:56:26.891Z,27.26
2018-06-04T17:01:21.495Z,26.94
2018-06-04T17:06:16.081Z,26.83
2018-06-04T17:11:10.619Z,26.61
2018-06-04T17:16:05.867Z,26.51
2018-06-04T17:21:00.424Z,26.43
2018-06-04T17:25:54.979Z,26.37
2018-06-04T17:30:49.600Z,26.27
2018-06-04T17:35:44.152Z,26.28
2018-06-04T17:40:38.710Z,25.91
2018-06-04T17:45:33.274Z,26.02
2018-06-04T17:50:27.839Z,25.85
2018-06-04T17:55:22.419Z,25.57
2018-06-04T18:00:17.026Z,25.44
2018-06-04T18:05:11.607Z,25.27
2018-06-04T18:10:06.276Z,25.32
2018-06-04T18:15:00.878Z,25.18
2018-06-04T18:19:55.524Z,25.24
2018-06-04T18:24:50.121Z,24.88
2018-06-04T18:29:44.722Z,24.59
2018-06-04T18:34:39.330Z,24.45
2018-06-04T18:39:33.955Z,24.65
2018-06-04T18:44:28.574Z,24.80
2018-06-04T18:49:23.071Z,23.94
2018-06-04T18:54:17.719Z,22.62
2018-06-04T18:59:12.305Z,22.45
2018-06-04T19:04:06.937Z,22.47
2018-06-04T19:09:01.623Z,22.94
2018-06-04T19:13:56.099Z,23.28
2018-06-04T19:18:50.720Z,23.26
2018-06-04T19:23:45.316Z,23.25
2018-06-04T19:28:39.931Z,23.40
2018-06-04T19:33:34.548Z,23.51
2018-06-04T19:38:29.167Z,23.40
2018-06-04T19:43:23.738Z,23.25
2018-06-04T19:48:18.357Z,23.16
2018-06-04T19:53:12.926Z,23.17
2018-06-04T19:58:07.514Z,23.16
2018-06-04T20:03:02.165Z,23.23
2018-06-04T20:07:56.708Z,23.12
2018-06-04T20:12:51.292Z,23.15
2018-06-04T20:17:45.819Z,23.02
2018-06-04T20:22:40.414Z,23.05
2018-06-04T20:27:34.978Z,22.96
2018-06-04T20:32:29.560Z,22.98
2018-06-04T20:37:24.117Z,22.93
2018-06-04T20:42:18.729Z,22.92
2018-06-04T20:47:13.347Z,23.12
2018-06-04T20:52:08.036Z,23.11
2018-06-04T20:57:02.622Z,23.20
2018-06-04T21:01:57.218Z,22.93
2018-06-04T21:06:51.794Z,22.61
2018-06-04T21:11:46.404Z,22.36
2018-06-04T21:16:40.971Z,21.94
2018-06-04T21:21:35.512Z,21.93
2018-06-04T21:26:30.277Z,21.89
2018-06-04T21:31:24.840Z,21.75
2018-06-04T21:36:19.406Z,21.93
2018-06-04T21:41:14.000Z,22.04
2018-06-04T21:46:08.225Z,21.97
2018-06-04T21:51:02.796Z,22.05
2018-06-04T21:55:57.062Z,22.19
2018-06-04T22:00:51.769Z,22.09
2018-06-04T22:05:46.346Z,22.14
2018-06-04T22:10:40.949Z,22.00
2018-06-04T22:15:35.560Z,21.74
2018-06-04T22:20:30.163Z,21.61
2018-06-04T22:25:24.747Z,21.58
2018-06-04T22:30:19.302Z,21.53
2018-06-04T22:35:13.838Z,21.09
2018-06-04T22:40:08.407Z,21.38
2018-06-04T22:45:02.970Z,21.37
2018-06-04T22:49:57.550Z,21.10
2018-06-04T22:54:52.140Z,21.16
2018-06-04T22:59:46.697Z,21.18
2018-06-04T23:04:41.241Z,21.07
2018-06-04T23:09:35.778Z,20.79
2018-06-04T23:14:30.298Z,20.73
2018-06-04T23:19:24.876Z,20.48
2018-06-04T23:24:19.453Z,20.44
2018-06-04T23:29:13.958Z,20.45
2018-06-04T23:34:08.514Z,20.33
2018-06-04T23:39:03.124Z,20.34
2018-06-04T23:43:57.731Z,20.36
2018-06-04T23:48:52.253Z,20.29
2018-06-04T23:53:46.805Z,20.25
2018-06-04T23:58:41.314Z,20.14
